createdAt,value
2022-08-09T00:00:25.127Z,-39.78
2022-08-09T00:01:25.223Z,-39.78
2022-08-09T00:02:25.165Z,-39.78
2022-08-09T00:04:10.415Z,-39.78
2022-08-09T00:04:34.314Z,-39.78
2022-08-09T00:06:18.497Z,-39.78
2022-08-09T00:06:27.511Z,-39.78
2022-08-09T00:07:25.259Z,-39.78
2022-08-09T00:08:31.913Z,-39.78
2022-08-09T00:09:25.297Z,-39.78
2022-08-09T00:10:25.316Z,-39.78
2022-08-09T00:11:55.074Z,-39.78
2022-08-09T00:12:25.332Z,-39.78
2022-08-09T00:13:25.353Z,-39.78
2022-08-09T00:14:30.625Z,-39.78
2022-08-09T00:15:35.473Z,-39.78
2022-08-09T00:16:26.204Z,-39.78
2022-08-09T00:18:05.943Z,-39.78
2022-08-09T00:18:25.439Z,-39.78
2022-08-09T00:19:27.650Z,-39.78
2022-08-09T00:20:25.489Z,-39.78
2022-08-09T00:21:25.500Z,-39.78
2022-08-09T00:22:25.499Z,-39.78
2022-08-09T00:23:54.792Z,-39.78
2022-08-09T00:24:27.200Z,-39.78
2022-08-09T00:25:32.931Z,-39.78
2022-08-09T00:26:29.520Z,-39.78
2022-08-09T00:27:25.606Z,-39.78
2022-08-09T00:28:26.528Z,-39.78
2022-08-09T00:29:39.323Z,-39.78
2022-08-09T00:30:26.790Z,-39.78
2022-08-09T00:31:57.497Z,-39.78
2022-08-09T00:32:27.222Z,-39.78
2022-08-09T00:33:32.491Z,-39.78
2022-08-09T00:34:26.200Z,-39.78
2022-08-09T00:35:25.747Z,-39.78
2022-08-09T00:36:29.465Z,-39.78
2022-08-09T00:37:25.761Z,-39.78
2022-08-09T00:38:25.773Z,-39.78
2022-08-09T00:40:09.247Z,-39.78
2022-08-09T00:40:31.068Z,-39.78
2022-08-09T00:44:13.806Z,-39.78
2022-08-09T00:44:27.091Z,-39.78
2022-08-09T00:44:32.602Z,-39.78
2022-08-09T00:45:34.747Z,-39.78
2022-08-09T00:46:57.528Z,-39.78
2022-08-09T00:47:33.198Z,-39.78
2022-08-09T00:48:32.473Z,-39.78
2022-08-09T00:49:32.480Z,-39.78
2022-08-09T00:50:32.524Z,-39.78
2022-08-09T00:51:33.902Z,-39.78
2022-08-09T00:52:32.749Z,-39.78
2022-08-09T00:53:32.552Z,-39.78
2022-08-09T00:54:35.831Z,-39.78
2022-08-09T00:56:04.538Z,-39.78
2022-08-09T00:56:32.622Z,-39.78
2022-08-09T00:57:34.974Z,-39.78
2022-08-09T00:58:32.643Z,-39.78
2022-08-09T00:59:41.621Z,-39.78
2022-08-09T01:00:32.686Z,-39.78
2022-08-09T01:01:32.686Z,-39.78
2022-08-09T01:02:32.934Z,-39.78
2022-08-09T01:03:32.833Z,-39.78
2022-08-09T01:04:32.743Z,-39.78
2022-08-09T01:05:46.454Z,-39.78
2022-08-09T01:06:35.377Z,-39.78
2022-08-09T01:07:37.860Z,-39.78
2022-08-09T01:08:32.804Z,-39.78
2022-08-09T01:09:35.849Z,-39.78
2022-08-09T01:10:32.852Z,-39.78
2022-08-09T02:18:38.723Z,12.80
2022-08-09T02:19:38.711Z,12.78
2022-08-09T02:20:32.796Z,12.75
2022-08-09T02:21:31.890Z,12.75
2022-08-09T02:22:35.960Z,12.73
2022-08-09T02:23:39.789Z,12.72
2022-08-09T02:24:31.943Z,12.76
2022-08-09T02:25:31.948Z,12.78
2022-08-09T02:26:31.974Z,12.76
2022-08-09T02:27:57.538Z,12.78
2022-08-09T02:28:32.000Z,12.80
2022-08-09T02:29:32.732Z,12.82
2022-08-09T02:30:32.024Z,12.80
2022-08-09T02:31:34.157Z,12.79
2022-08-09T02:32:32.275Z,12.80
2022-08-09T02:33:58.182Z,12.82
2022-08-09T02:34:40.238Z,12.83
2022-08-09T02:36:02.874Z,12.86
2022-08-09T02:36:32.120Z,12.91
2022-08-09T02:37:36.567Z,12.91
2022-08-09T02:38:32.144Z,12.91
2022-08-09T02:39:34.199Z,12.90
2022-08-09T02:40:32.235Z,12.90
2022-08-09T02:41:32.196Z,12.87
2022-08-09T02:42:32.450Z,12.87
2022-08-09T02:43:47.724Z,12.86
2022-08-09T02:44:32.258Z,12.82
2022-08-09T02:45:32.795Z,12.82
2022-08-09T02:46:32.271Z,12.83
2022-08-09T02:47:33.686Z,12.80
2022-08-09T02:48:32.300Z,12.82
2022-08-09T02:49:38.548Z,12.82
2022-08-09T02:50:32.330Z,12.79
2022-08-09T02:51:36.972Z,12.73
2022-08-09T02:52:32.546Z,12.68
2022-08-09T02:53:32.372Z,12.64
2022-08-09T02:54:32.402Z,12.55
2022-08-09T02:55:46.126Z,12.54
2022-08-09T02:56:32.410Z,12.53
2022-08-09T02:57:40.440Z,12.54
2022-08-09T02:58:36.770Z,12.55
2022-08-09T02:59:36.376Z,12.55
2022-08-09T03:00:32.503Z,12.57
2022-08-09T03:01:43.324Z,12.57
2022-08-09T03:02:32.803Z,12.55
2022-08-09T03:03:37.261Z,12.54
2022-08-09T03:04:32.528Z,12.55
2022-08-09T03:05:34.574Z,12.47
2022-08-09T03:06:32.539Z,12.45
2022-08-09T03:07:32.553Z,12.42
2022-08-09T03:08:32.564Z,12.42
2022-08-09T03:09:33.676Z,12.42
2022-08-09T03:10:32.594Z,12.42
2022-08-09T03:12:09.717Z,12.46
2022-08-09T03:12:32.898Z,12.43
2022-08-09T03:13:43.824Z,12.46
2022-08-09T03:14:32.679Z,12.49
2022-08-09T03:16:04.757Z,12.47
2022-08-09T03:16:32.699Z,12.53
2022-08-09T03:17:32.713Z,12.54
2022-08-09T03:18:32.720Z,12.55
2022-08-09T03:19:58.439Z,12.58
2022-08-09T03:20:32.759Z,12.61
2022-08-09T03:21:39.495Z,12.60
2022-08-09T03:22:32.849Z,12.61
2022-08-09T03:23:32.801Z,12.61
2022-08-09T03:24:42.626Z,12.62
2022-08-09T03:25:57.731Z,12.64
2022-08-09T03:26:32.842Z,12.60
2022-08-09T03:27:44.511Z,12.57
2022-08-09T03:28:32.867Z,12.53
2022-08-09T03:29:35.722Z,12.50
2022-08-09T03:30:34.320Z,12.42
2022-08-09T03:31:32.912Z,12.36
2022-08-09T03:32:33.063Z,12.35
2022-08-09T03:33:53.015Z,12.32
2022-08-09T03:34:32.969Z,12.28
2022-08-09T03:36:11.327Z,12.27
2022-08-09T03:36:32.975Z,12.24
2022-08-09T03:37:56.517Z,12.24
2022-08-09T03:38:32.995Z,12.21
2022-08-09T03:39:38.010Z,12.22
2022-08-09T03:40:33.026Z,12.20
2022-08-09T03:41:45.730Z,12.18
2022-08-09T03:42:33.249Z,12.20
2022-08-09T03:43:33.260Z,12.20
2022-08-09T03:44:33.094Z,12.21
2022-08-09T03:46:05.397Z,12.25
2022-08-09T03:46:33.098Z,12.27
2022-08-09T03:47:39.830Z,12.24
2022-08-09T03:48:33.128Z,12.25
2022-08-09T03:49:35.814Z,12.27
2022-08-09T03:50:33.145Z,12.27
2022-08-09T03:51:57.792Z,12.28
2022-08-09T03:52:33.420Z,12.29
2022-08-09T03:53:36.933Z,12.29
2022-08-09T03:54:34.337Z,12.27
2022-08-09T03:55:36.110Z,12.27
2022-08-09T03:56:33.231Z,12.28
2022-08-09T03:57:33.243Z,12.29
2022-08-09T03:58:33.254Z,12.29
2022-08-09T03:59:52.875Z,12.29
2022-08-09T04:00:33.348Z,12.29
2022-08-09T04:01:33.297Z,12.31
2022-08-09T04:02:33.749Z,12.35
2022-08-09T04:03:45.859Z,12.32
2022-08-09T04:04:38.850Z,12.31
2022-08-09T04:05:33.365Z,12.28
2022-08-09T04:06:33.377Z,12.24
2022-08-09T04:07:52.166Z,12.20
2022-08-09T04:08:33.402Z,12.18
2022-08-09T04:09:41.622Z,12.17
2022-08-09T04:10:33.432Z,12.15
2022-08-09T04:11:33.442Z,12.15
2022-08-09T04:12:33.452Z,12.13
2022-08-09T04:14:37.151Z,12.13
2022-08-09T04:15:01.989Z,12.13
2022-08-09T04:15:52.016Z,12.18
2022-08-09T04:16:33.509Z,12.18
2022-08-09T04:17:33.518Z,12.20
2022-08-09T04:18:33.562Z,12.21
2022-08-09T04:19:50.855Z,12.18
2022-08-09T04:20:33.564Z,12.17
2022-08-09T04:21:33.579Z,12.17
2022-08-09T04:22:33.759Z,12.13
2022-08-09T04:23:33.604Z,12.10
2022-08-09T04:24:33.633Z,12.10
2022-08-09T04:25:33.629Z,12.12
2022-08-09T04:26:38.192Z,12.12
2022-08-09T04:27:33.658Z,12.13
2022-08-09T04:28:36.270Z,12.12
2022-08-09T04:29:33.709Z,12.10
2022-08-09T04:30:33.686Z,12.07
2022-08-09T04:31:37.770Z,12.09
2022-08-09T04:32:37.134Z,12.09
2022-08-09T04:33:33.733Z,12.12
2022-08-09T04:34:33.782Z,12.10
2022-08-09T04:35:33.754Z,12.15
2022-08-09T04:36:33.764Z,12.18
2022-08-09T04:37:45.846Z,12.21
2022-08-09T04:38:33.788Z,12.22
2022-08-09T04:39:33.885Z,12.25
2022-08-09T04:40:36.148Z,12.27
2022-08-09T04:41:43.949Z,12.29
2022-08-09T04:42:35.589Z,12.29
2022-08-09T04:43:33.852Z,12.28
2022-08-09T04:44:33.881Z,12.29
2022-08-09T04:45:36.025Z,12.27
2022-08-09T04:46:38.071Z,12.27
2022-08-09T04:47:58.778Z,12.29
2022-08-09T04:48:33.928Z,12.29
2022-08-09T04:49:53.709Z,12.31
2022-08-09T04:50:37.738Z,12.35
2022-08-09T04:51:33.969Z,12.35
2022-08-09T04:52:34.202Z,12.36
2022-08-09T04:53:33.996Z,12.42
2022-08-09T04:54:34.021Z,12.42
2022-08-09T04:55:40.600Z,12.45
2022-08-09T04:56:34.047Z,12.46
2022-08-09T04:57:59.172Z,12.47
2022-08-09T04:58:34.061Z,12.53
2022-08-09T04:59:34.094Z,12.53
2022-08-09T05:00:34.341Z,12.55
2022-08-09T05:01:34.100Z,12.60
2022-08-09T05:02:34.437Z,12.60
2022-08-09T05:03:43.215Z,12.62
2022-08-09T05:04:34.242Z,12.67
2022-08-09T05:05:51.749Z,12.68
2022-08-09T05:06:35.932Z,12.73
2022-08-09T05:07:34.196Z,12.78
2022-08-09T05:08:34.205Z,12.85
2022-08-09T05:09:45.452Z,12.91
2022-08-09T05:10:34.237Z,13.01
2022-08-09T05:11:36.011Z,13.11
2022-08-09T05:12:34.502Z,13.22
2022-08-09T05:13:34.280Z,13.25
2022-08-09T05:14:34.311Z,13.31
2022-08-09T05:15:39.220Z,13.39
2022-08-09T05:16:34.322Z,13.46
2022-08-09T05:18:50.461Z,13.53
2022-08-09T05:19:02.849Z,13.62
2022-08-09T05:19:44.942Z,13.70
2022-08-09T05:20:34.373Z,13.75
2022-08-09T05:21:46.795Z,13.79
2022-08-09T05:23:50.468Z,13.90
2022-08-09T05:24:04.091Z,13.96
2022-08-09T05:24:34.448Z,14.04
2022-08-09T05:25:34.440Z,14.08
2022-08-09T05:26:45.475Z,14.14
2022-08-09T05:27:34.480Z,14.20
2022-08-09T05:28:34.493Z,14.25
2022-08-09T05:29:35.523Z,14.29
2022-08-09T05:30:34.520Z,14.35
2022-08-09T05:31:44.216Z,14.40
2022-08-09T05:32:34.709Z,14.44
2022-08-09T05:33:34.567Z,14.50
2022-08-09T05:34:34.598Z,14.54
2022-08-09T05:35:45.052Z,14.55
2022-08-09T05:36:34.606Z,14.60
2022-08-09T05:37:38.255Z,14.66
2022-08-09T05:38:34.632Z,14.72
2022-08-09T05:39:36.046Z,14.78
2022-08-09T05:40:34.656Z,14.84
2022-08-09T05:41:34.666Z,14.89
2022-08-09T05:42:35.019Z,14.92
2022-08-09T05:43:34.695Z,14.99
2022-08-09T05:44:35.809Z,15.04
2022-08-09T05:45:52.585Z,15.09
2022-08-09T05:46:34.741Z,15.15
2022-08-09T05:47:34.754Z,15.22
2022-08-09T05:48:34.766Z,15.28
2022-08-09T05:50:30.611Z,15.36
2022-08-09T05:50:51.073Z,15.42
2022-08-09T05:51:45.906Z,15.46
2022-08-09T05:52:35.180Z,15.47
2022-08-09T05:53:37.218Z,15.55
2022-08-09T05:54:34.867Z,15.64
2022-08-09T05:55:34.861Z,15.72
2022-08-09T05:56:34.872Z,15.76
2022-08-09T05:57:55.120Z,15.83
2022-08-09T05:58:34.902Z,15.95
2022-08-09T05:59:34.938Z,16.04
2022-08-09T06:00:34.930Z,16.10
2022-08-09T06:01:42.668Z,16.20
2022-08-09T06:02:35.445Z,16.23
2022-08-09T06:03:44.102Z,16.29
2022-08-09T06:04:35.306Z,16.33
2022-08-09T06:05:58.147Z,16.38
2022-08-09T06:06:35.030Z,16.41
2022-08-09T06:07:35.012Z,16.43
2022-08-09T06:08:35.020Z,16.49
2022-08-09T06:09:54.823Z,16.56
2022-08-09T06:10:35.059Z,16.64
2022-08-09T06:11:41.104Z,16.66
2022-08-09T06:12:35.237Z,16.71
2022-08-09T06:13:35.097Z,16.75
2022-08-09T06:14:35.109Z,16.78
2022-08-09T06:15:35.124Z,16.83
2022-08-09T06:16:35.132Z,16.87
2022-08-09T06:17:40.004Z,16.90
2022-08-09T06:18:35.171Z,16.90
2022-08-09T06:19:35.177Z,16.94
2022-08-09T06:20:35.188Z,17.02
2022-08-09T06:21:35.208Z,17.05
2022-08-09T06:22:35.705Z,17.11
2022-08-09T06:23:55.785Z,17.11
2022-08-09T06:24:35.312Z,17.15
2022-08-09T06:25:35.262Z,17.19
2022-08-09T06:26:35.273Z,17.24
2022-08-09T06:27:42.948Z,17.30
2022-08-09T06:28:35.296Z,17.38
2022-08-09T06:29:48.016Z,17.42
2022-08-09T06:30:35.323Z,17.51
2022-08-09T06:31:40.389Z,17.59
2022-08-09T06:33:13.579Z,17.65
2022-08-09T06:33:53.071Z,17.70
2022-08-09T06:34:35.396Z,17.72
2022-08-09T06:35:56.378Z,17.82
2022-08-09T06:36:35.409Z,17.86
2022-08-09T06:37:52.891Z,17.95
2022-08-09T06:38:37.377Z,17.98
2022-08-09T06:39:49.105Z,18.01
2022-08-09T06:40:35.587Z,18.03
2022-08-09T06:42:06.437Z,18.08
2022-08-09T06:42:35.592Z,18.16
2022-08-09T06:43:35.512Z,18.23
2022-08-09T06:44:35.558Z,18.25
2022-08-09T06:46:06.312Z,18.28
2022-08-09T06:46:39.621Z,18.26
2022-08-09T06:47:39.846Z,18.29
2022-08-09T06:48:35.601Z,18.31
2022-08-09T06:50:11.596Z,18.34
2022-08-09T06:50:35.639Z,18.31
2022-08-09T06:51:39.825Z,18.35
2022-08-09T06:52:35.665Z,18.35
2022-08-09T06:53:38.344Z,18.37
2022-08-09T06:54:35.716Z,18.41
2022-08-09T06:55:35.707Z,18.44
2022-08-09T06:56:35.721Z,18.53
2022-08-09T06:58:02.020Z,18.62
2022-08-09T07:00:47.261Z,18.73
2022-08-09T07:00:58.520Z,18.88
2022-08-09T07:01:03.498Z,19.00
2022-08-09T07:02:04.753Z,19.14
2022-08-09T07:03:06.008Z,19.19
2022-08-09T07:04:03.928Z,19.30
2022-08-09T07:05:02.741Z,19.34
2022-08-09T07:06:05.134Z,19.41
2022-08-09T07:07:04.984Z,19.51
2022-08-09T07:08:02.746Z,19.58
2022-08-09T07:09:02.773Z,19.63
2022-08-09T07:10:14.044Z,19.63
2022-08-09T07:11:03.425Z,19.62
2022-08-09T07:12:02.808Z,19.66
2022-08-09T07:13:18.534Z,19.67
2022-08-09T07:14:05.482Z,19.71
2022-08-09T07:15:53.202Z,19.73
2022-08-09T07:16:48.087Z,19.74
2022-08-09T07:17:02.897Z,19.81
2022-08-09T07:18:03.259Z,19.86
2022-08-09T07:19:02.934Z,19.89
2022-08-09T07:20:02.928Z,19.92
2022-08-09T07:21:02.948Z,19.94
2022-08-09T07:22:03.004Z,19.96
2022-08-09T07:23:02.973Z,19.99
2022-08-09T07:24:03.019Z,20.06
2022-08-09T07:25:05.532Z,20.06
2022-08-09T07:26:03.049Z,20.14
2022-08-09T07:27:03.036Z,20.25
2022-08-09T07:28:04.317Z,20.36
2022-08-09T07:29:11.780Z,20.41
2022-08-09T07:30:03.085Z,20.44
2022-08-09T07:31:03.098Z,20.41
2022-08-09T07:32:03.107Z,20.40
2022-08-09T07:33:03.125Z,20.37
2022-08-09T07:34:03.156Z,20.41
2022-08-09T07:35:10.814Z,20.50
2022-08-09T07:36:03.162Z,20.52
2022-08-09T07:37:03.682Z,20.52
2022-08-09T07:38:03.191Z,20.48
2022-08-09T07:39:03.228Z,20.43
2022-08-09T07:40:03.294Z,20.40
2022-08-09T07:41:11.431Z,20.40
2022-08-09T07:42:03.257Z,20.51
2022-08-09T07:43:03.273Z,20.66
2022-08-09T07:44:03.305Z,20.75
2022-08-09T07:45:14.844Z,20.85
2022-08-09T07:46:03.314Z,20.87
2022-08-09T07:47:03.325Z,20.84
2022-08-09T07:48:04.647Z,20.80
2022-08-09T07:49:03.380Z,20.80
2022-08-09T07:50:07.763Z,20.84
2022-08-09T07:52:02.602Z,20.85
2022-08-09T07:52:16.681Z,20.84
2022-08-09T07:53:04.623Z,20.84
2022-08-09T07:54:06.855Z,20.88
2022-08-09T07:55:08.636Z,20.95
2022-08-09T07:56:06.695Z,21.07
2022-08-09T07:57:03.469Z,21.15
2022-08-09T07:58:03.480Z,21.18
2022-08-09T07:59:10.491Z,21.22
2022-08-09T08:00:04.250Z,21.33
2022-08-09T08:01:06.757Z,21.39
2022-08-09T08:02:03.650Z,21.50
2022-08-09T08:03:04.617Z,21.55
2022-08-09T08:04:03.570Z,21.55
2022-08-09T08:05:03.565Z,21.57
2022-08-09T08:06:03.582Z,21.58
2022-08-09T08:07:27.116Z,21.67
2022-08-09T08:09:18.150Z,21.75
2022-08-09T08:09:51.725Z,21.79
2022-08-09T08:10:14.837Z,21.88
2022-08-09T08:12:11.583Z,21.92
2022-08-09T08:12:32.050Z,21.92
2022-08-09T08:13:14.881Z,21.93
2022-08-09T08:14:14.906Z,21.95
2022-08-09T08:15:16.791Z,21.95
2022-08-09T08:16:29.713Z,21.95
2022-08-09T08:17:35.392Z,21.98
2022-08-09T08:18:16.458Z,22.06
2022-08-09T08:19:14.978Z,22.13
2022-08-09T08:20:14.967Z,22.17
2022-08-09T08:21:14.983Z,22.20
2022-08-09T08:22:14.988Z,22.18
2022-08-09T08:23:17.107Z,22.10
2022-08-09T08:24:16.605Z,22.14
2022-08-09T08:25:15.031Z,22.20
2022-08-09T08:26:15.036Z,22.29
2022-08-09T08:27:16.776Z,22.36
2022-08-09T08:28:15.497Z,22.47
2022-08-09T08:29:15.096Z,22.57
2022-08-09T08:30:15.096Z,22.66
2022-08-09T08:31:15.462Z,22.68
2022-08-09T08:32:19.035Z,22.66
2022-08-09T08:33:23.051Z,22.72
2022-08-09T08:34:15.186Z,22.68
2022-08-09T08:35:18.272Z,22.69
2022-08-09T08:36:28.392Z,22.69
2022-08-09T08:37:15.705Z,22.75
2022-08-09T08:38:15.249Z,22.75
2022-08-09T08:39:15.292Z,22.76
2022-08-09T08:40:15.276Z,22.73
2022-08-09T08:41:15.264Z,22.75
2022-08-09T08:42:16.614Z,22.81
2022-08-09T08:43:15.293Z,22.90
2022-08-09T08:44:15.338Z,22.96
2022-08-09T08:45:15.325Z,22.98
2022-08-09T08:46:33.387Z,22.91
2022-08-09T08:47:15.378Z,22.90
2022-08-09T08:48:19.337Z,22.96
2022-08-09T08:49:19.024Z,22.94
2022-08-09T08:50:15.525Z,22.98
2022-08-09T08:51:15.417Z,22.93
2022-08-09T08:52:35.019Z,22.78
2022-08-09T08:53:16.100Z,22.66
2022-08-09T08:54:20.292Z,22.66
2022-08-09T08:55:15.500Z,22.68
2022-08-09T08:56:27.943Z,22.70
2022-08-09T08:57:15.513Z,22.75
2022-08-09T08:58:15.518Z,22.84
2022-08-09T08:59:20.080Z,22.87
2022-08-09T09:00:20.791Z,22.91
2022-08-09T09:01:24.580Z,22.90
2022-08-09T09:02:21.007Z,22.90
2022-08-09T09:03:20.738Z,22.93
2022-08-09T09:04:15.649Z,23.00
2022-08-09T09:05:15.650Z,23.03
2022-08-09T09:06:15.660Z,23.09
2022-08-09T09:07:15.684Z,23.13
2022-08-09T09:08:31.066Z,23.21
2022-08-09T09:09:21.271Z,23.36
2022-08-09T09:10:15.723Z,23.41
2022-08-09T09:11:17.708Z,23.37
2022-08-09T09:12:17.008Z,23.25
2022-08-09T09:13:15.759Z,23.27
2022-08-09T09:14:15.912Z,23.24
2022-08-09T09:15:28.628Z,23.17
2022-08-09T09:16:15.792Z,23.09
2022-08-09T09:17:16.489Z,23.13
2022-08-09T09:18:15.814Z,23.23
2022-08-09T09:19:40.869Z,23.31
2022-08-09T09:20:16.062Z,23.41
2022-08-09T09:21:15.863Z,23.46
2022-08-09T09:22:16.301Z,23.44
2022-08-09T09:23:15.897Z,23.39
2022-08-09T09:24:21.544Z,23.46
2022-08-09T09:26:01.955Z,23.48
2022-08-09T09:26:15.940Z,23.46
2022-08-09T09:28:03.197Z,23.41
2022-08-09T09:28:39.140Z,23.25
2022-08-09T09:29:17.245Z,23.21
2022-08-09T09:30:32.973Z,23.23
2022-08-09T09:31:17.617Z,23.24
2022-08-09T09:32:16.227Z,23.34
2022-08-09T09:33:18.498Z,23.39
2022-08-09T09:34:18.034Z,23.41
2022-08-09T09:35:17.787Z,23.46
2022-08-09T09:36:20.568Z,23.58
2022-08-09T09:37:16.107Z,23.66
2022-08-09T09:38:18.480Z,23.69
2022-08-09T09:39:16.265Z,23.76
2022-08-09T09:40:17.762Z,23.73
2022-08-09T09:41:16.169Z,23.73
2022-08-09T09:42:16.181Z,23.76
2022-08-09T09:43:16.202Z,23.84
2022-08-09T09:44:25.322Z,23.83
2022-08-09T09:46:50.449Z,23.80
2022-08-09T09:47:32.956Z,23.83
2022-08-09T09:48:30.823Z,23.80
2022-08-09T09:49:56.477Z,23.84
2022-08-09T09:50:30.856Z,23.95
2022-08-09T09:51:38.502Z,24.02
2022-08-09T09:52:36.061Z,24.08
2022-08-09T09:53:57.288Z,24.16
2022-08-09T09:54:30.929Z,24.23
2022-08-09T09:55:33.178Z,24.17
2022-08-09T09:56:33.566Z,24.03
2022-08-09T09:58:02.865Z,23.96
2022-08-09T09:58:31.015Z,24.02
2022-08-09T09:59:35.590Z,24.05
2022-08-09T10:00:30.988Z,24.02
2022-08-09T10:01:38.065Z,23.96
2022-08-09T10:02:31.237Z,23.95
2022-08-09T10:03:31.054Z,23.99
2022-08-09T10:04:31.533Z,24.03
2022-08-09T10:06:04.012Z,24.03
2022-08-09T10:06:32.281Z,24.05
2022-08-09T10:07:31.489Z,24.10
2022-08-09T10:08:31.101Z,24.11
2022-08-09T10:09:31.140Z,24.13
2022-08-09T10:10:31.533Z,24.16
2022-08-09T10:11:59.727Z,24.16
2022-08-09T10:12:31.315Z,24.21
2022-08-09T10:13:43.737Z,24.26
2022-08-09T10:14:33.641Z,24.33
2022-08-09T10:16:08.996Z,24.40
2022-08-09T10:17:24.397Z,24.48
2022-08-09T10:17:56.706Z,24.53
2022-08-09T10:18:31.245Z,24.53
2022-08-09T10:19:31.289Z,24.53
2022-08-09T10:20:35.578Z,24.54
2022-08-09T10:21:31.299Z,24.61
2022-08-09T10:22:33.475Z,24.53
2022-08-09T10:23:31.324Z,24.54
2022-08-09T10:24:35.920Z,24.55
2022-08-09T10:25:34.852Z,24.63
2022-08-09T10:26:31.384Z,24.58
2022-08-09T10:27:38.806Z,24.47
2022-08-09T10:28:31.406Z,24.40
2022-08-09T10:30:49.467Z,24.28
2022-08-09T10:32:37.325Z,24.38
2022-08-09T10:32:45.069Z,24.43
2022-08-09T10:32:55.167Z,24.57
2022-08-09T10:34:11.409Z,24.80
2022-08-09T10:34:54.793Z,24.78
2022-08-09T10:35:54.781Z,24.65
2022-08-09T10:36:54.792Z,24.57
2022-08-09T10:37:54.801Z,24.53
2022-08-09T10:38:59.915Z,24.55
2022-08-09T10:39:54.930Z,24.57
2022-08-09T10:40:56.446Z,24.61
2022-08-09T10:41:54.865Z,24.73
2022-08-09T10:42:54.884Z,24.73
2022-08-09T10:44:01.525Z,24.74
2022-08-09T10:44:54.922Z,24.65
2022-08-09T10:45:59.981Z,24.69
2022-08-09T10:47:00.822Z,24.76
2022-08-09T10:48:20.215Z,24.80
2022-08-09T10:48:54.987Z,24.80
2022-08-09T10:49:54.971Z,24.89
2022-08-09T10:50:54.992Z,24.96
2022-08-09T10:51:54.993Z,24.99
2022-08-09T10:52:55.014Z,24.96
2022-08-09T10:53:55.160Z,24.89
2022-08-09T10:54:55.037Z,24.89
2022-08-09T10:56:00.166Z,24.93
2022-08-09T10:56:55.073Z,24.99
2022-08-09T10:57:55.418Z,25.08
2022-08-09T10:58:55.121Z,25.17
2022-08-09T10:59:57.839Z,25.22
2022-08-09T11:03:05.668Z,25.25
2022-08-09T11:03:50.685Z,25.22
2022-08-09T11:04:03.744Z,25.22
2022-08-09T11:04:32.667Z,25.14
2022-08-09T11:05:31.006Z,25.16
2022-08-09T11:06:30.993Z,25.21
2022-08-09T11:07:57.037Z,25.23
2022-08-09T11:08:33.386Z,25.32
2022-08-09T11:09:33.672Z,25.41
2022-08-09T11:10:31.060Z,25.46
2022-08-09T11:11:31.074Z,25.43
2022-08-09T11:12:31.386Z,25.21
2022-08-09T11:13:50.500Z,25.18
2022-08-09T11:14:31.751Z,25.26
2022-08-09T11:15:33.820Z,25.36
2022-08-09T11:16:33.546Z,25.41
2022-08-09T11:17:31.315Z,25.43
2022-08-09T11:18:31.203Z,25.35
2022-08-09T11:20:10.561Z,25.25
2022-08-09T11:20:31.214Z,25.29
2022-08-09T11:21:31.224Z,25.41
2022-08-09T11:22:31.236Z,25.50
2022-08-09T11:23:31.287Z,25.50
2022-08-09T11:24:31.264Z,25.47
2022-08-09T11:25:36.147Z,25.44
2022-08-09T11:26:31.292Z,25.41
2022-08-09T11:28:03.633Z,25.44
2022-08-09T11:28:34.341Z,25.51
2022-08-09T11:30:04.676Z,25.51
2022-08-09T11:30:32.600Z,25.53
2022-08-09T11:31:33.933Z,25.51
2022-08-09T11:32:31.677Z,25.60
2022-08-09T11:33:31.417Z,25.65
2022-08-09T11:34:31.397Z,25.69
2022-08-09T11:35:35.120Z,25.66
2022-08-09T11:36:35.835Z,25.65
2022-08-09T11:37:41.035Z,25.58
2022-08-09T11:38:33.256Z,25.54
2022-08-09T11:39:38.011Z,25.63
2022-08-09T11:40:31.484Z,25.66
2022-08-09T11:41:37.992Z,25.75
2022-08-09T11:42:31.766Z,25.75
2022-08-09T11:43:32.238Z,25.77
2022-08-09T11:44:31.545Z,25.78
2022-08-09T11:45:42.480Z,25.81
2022-08-09T11:46:33.509Z,25.80
2022-08-09T11:47:31.598Z,25.84
2022-08-09T11:48:31.780Z,25.85
2022-08-09T11:49:42.924Z,25.93
2022-08-09T11:52:59.206Z,25.95
2022-08-09T11:54:12.998Z,26.06
2022-08-09T11:54:28.667Z,25.96
2022-08-09T11:55:14.558Z,25.93
2022-08-09T11:56:14.569Z,26.00
2022-08-09T11:57:14.586Z,26.03
2022-08-09T11:58:14.592Z,25.95
2022-08-09T11:59:14.626Z,26.00
2022-08-09T12:00:16.374Z,26.07
2022-08-09T12:01:37.590Z,26.19
2022-08-09T12:02:37.150Z,26.25
2022-08-09T12:03:55.887Z,26.29
2022-08-09T12:04:20.876Z,26.34
2022-08-09T12:05:17.901Z,26.41
2022-08-09T12:06:14.706Z,26.41
2022-08-09T12:07:14.718Z,26.31
2022-08-09T12:08:21.708Z,26.22
2022-08-09T12:09:15.328Z,26.29
2022-08-09T12:10:38.787Z,26.34
2022-08-09T12:11:15.562Z,26.44
2022-08-09T12:12:20.360Z,26.38
2022-08-09T12:14:09.546Z,26.25
2022-08-09T12:14:36.538Z,26.16
2022-08-09T12:15:16.028Z,26.16
2022-08-09T12:16:25.605Z,26.21
2022-08-09T12:17:27.703Z,26.26
2022-08-09T12:18:14.881Z,26.31
2022-08-09T12:19:14.895Z,26.26
2022-08-09T12:20:16.777Z,26.29
2022-08-09T12:21:28.361Z,26.29
2022-08-09T12:22:14.945Z,26.29
2022-08-09T12:23:14.954Z,26.26
2022-08-09T12:24:14.987Z,26.29
2022-08-09T12:25:15.224Z,26.26
2022-08-09T12:26:19.557Z,26.25
2022-08-09T12:28:58.863Z,26.22
2022-08-09T12:29:33.034Z,26.26
2022-08-09T12:29:51.281Z,26.37
2022-08-09T12:30:36.740Z,26.48
2022-08-09T12:31:59.434Z,26.52
2022-08-09T12:32:30.373Z,26.51
2022-08-09T12:33:51.153Z,26.41
2022-08-09T12:34:30.249Z,26.51
2022-08-09T12:35:32.577Z,26.41
2022-08-09T12:36:33.801Z,26.25
2022-08-09T12:37:30.257Z,26.16
2022-08-09T12:38:38.087Z,26.23
2022-08-09T12:39:30.380Z,26.18
2022-08-09T12:40:30.337Z,26.23
2022-08-09T12:41:33.674Z,26.26
2022-08-09T12:42:30.739Z,26.28
2022-08-09T12:44:05.981Z,26.33
2022-08-09T12:44:37.209Z,26.29
2022-08-09T12:45:33.322Z,26.31
2022-08-09T12:46:30.382Z,26.38
2022-08-09T12:47:37.089Z,26.33
2022-08-09T12:48:33.762Z,26.33
2022-08-09T12:49:30.455Z,26.45
2022-08-09T12:50:30.438Z,26.52
2022-08-09T12:51:59.892Z,26.59
2022-08-09T12:52:58.328Z,26.58
2022-08-09T12:53:37.630Z,26.59
2022-08-09T12:54:30.946Z,26.60
2022-08-09T12:56:12.693Z,26.65
2022-08-09T12:56:37.064Z,26.55
2022-08-09T12:57:30.549Z,26.58
2022-08-09T12:58:30.560Z,26.74
2022-08-09T12:59:40.043Z,26.83
2022-08-09T13:00:30.590Z,26.74
2022-08-09T13:01:30.670Z,26.68
2022-08-09T13:02:30.913Z,26.63
2022-08-09T13:03:57.075Z,26.60
2022-08-09T13:04:36.221Z,26.66
2022-08-09T13:05:50.861Z,26.70
2022-08-09T13:06:34.691Z,-39.78
2022-08-09T13:07:51.379Z,-39.78
2022-08-09T13:08:39.849Z,-39.78
2022-08-09T13:09:30.749Z,-39.78
2022-08-09T13:10:34.740Z,-39.78
2022-08-09T13:11:30.755Z,-39.78
2022-08-09T13:12:32.327Z,-39.78
2022-08-09T13:13:37.957Z,-39.78
2022-08-09T13:14:40.663Z,-39.78
2022-08-09T13:15:30.842Z,-39.78
2022-08-09T13:16:30.837Z,-39.78
2022-08-09T13:18:03.671Z,-39.78
2022-08-09T13:18:30.877Z,-39.78
2022-08-09T13:20:09.981Z,-39.78
2022-08-09T13:20:37.251Z,-39.78
2022-08-09T13:22:36.266Z,-39.78
2022-08-09T13:23:01.859Z,-39.78
2022-08-09T13:24:16.497Z,-39.78
2022-08-09T13:24:53.779Z,-39.78
2022-08-09T13:25:30.998Z,-39.78
2022-08-09T13:26:31.695Z,-39.78
2022-08-09T13:27:31.034Z,-39.78
2022-08-09T13:28:35.524Z,-39.78
2022-08-09T13:30:02.577Z,-39.78
2022-08-09T13:30:48.882Z,-39.78
2022-08-09T13:32:19.066Z,-39.78
2022-08-09T13:32:31.212Z,-39.78
2022-08-09T13:33:51.626Z,-39.78
2022-08-09T13:34:31.157Z,-39.78
2022-08-09T13:35:34.809Z,-39.78
2022-08-09T13:36:41.769Z,-39.78
2022-08-09T13:37:51.288Z,-39.78
2022-08-09T13:38:54.317Z,-39.78
2022-08-09T13:41:52.156Z,-39.78
2022-08-09T13:42:04.404Z,-39.78
2022-08-09T13:42:12.533Z,-39.78
2022-08-09T13:43:10.187Z,-39.78
2022-08-09T13:44:09.439Z,-39.78
2022-08-09T13:45:12.390Z,-39.78
2022-08-09T13:47:16.037Z,-39.78
2022-08-09T13:47:49.691Z,-39.78
2022-08-09T13:48:10.939Z,-39.78
2022-08-09T13:49:18.312Z,-39.78
2022-08-09T13:50:17.878Z,-39.78
2022-08-09T13:51:09.532Z,-39.78
2022-08-09T13:52:09.696Z,-39.78
2022-08-09T13:53:09.565Z,-39.78
2022-08-09T13:54:09.613Z,-39.78
2022-08-09T13:55:13.414Z,-39.78
2022-08-09T13:56:11.908Z,-39.78
2022-08-09T13:57:09.633Z,-39.78
2022-08-09T13:58:11.907Z,-39.78
2022-08-09T13:59:09.697Z,-39.78
2022-08-09T14:00:09.697Z,-39.78
2022-08-09T14:01:13.602Z,-39.78
2022-08-09T14:02:10.009Z,-39.78